Time;durP1;ratioP1;P1;durP2;ratioP2;P2;SDS_P1;SDS_P2;PMS_P1;PMS_P2;Temp;Humidity;BMP_temperature;BMP_pressure;BME280_temperature;BME280_humidity;BME280_pressure;Samples;Min_cycle;Max_cycle;Signal;HPM_P1;HPM_P2
2022/09/21 00:00:33;;;;;;;;;;;17.10;73.80;;;;;;5075781;28;20558;-91
2022/09/21 00:02:58;;;;;;;;;;;17.10;73.20;;;;;;5075433;28;19950;-91
2022/09/21 00:05:24;;;;;;;;;;;17.10;73.10;;;;;;5075833;28;20043;-90
2022/09/21 00:07:50;;;;;;;;;;;17.00;73.00;;;;;;5075680;28;19948;-91
2022/09/21 00:10:18;;;;;;;;;;;16.90;73.20;;;;;;5075176;28;20392;-91
2022/09/21 00:12:44;;;;;;;;;;;16.90;73.20;;;;;;5075557;28;19955;-91
2022/09/21 00:15:09;;;;;;;;;;;16.90;73.00;;;;;;5075446;28;19946;-91
2022/09/21 00:17:35;;;;;;;;;;;16.80;71.30;;;;;;5075412;28;19960;-91
2022/09/21 00:20:03;;;;;;;;;;;16.70;72.30;;;;;;5075484;28;19962;-92
2022/09/21 00:22:29;;;;;;;;;;;16.70;72.20;;;;;;5075166;28;19949;-90
2022/09/21 00:24:55;;;;;;;;;;;16.60;71.70;;;;;;5075473;28;20415;-91
2022/09/21 00:27:20;;;;;;;;;;;16.50;71.80;;;;;;5075126;28;20329;-91
2022/09/21 00:29:47;;;;;;;;;;;16.30;72.80;;;;;;5075629;28;19946;-91
2022/09/21 00:32:14;;;;;;;;;;;16.30;73.40;;;;;;5075033;28;19949;-90
2022/09/21 00:34:40;;;;;;;;;;;16.10;73.90;;;;;;5074738;28;19947;-90
2022/09/21 00:37:08;;;;;;;;;;;16.00;74.70;;;;;;5075076;28;20025;-91
2022/09/21 00:39:33;;;;;;;;;;;15.80;75.90;;;;;;5075126;28;19976;-91
2022/09/21 00:41:59;;;;;;;;;;;15.80;75.80;;;;;;5074839;28;20363;-91
2022/09/21 00:44:28;;;;;;;;;;;15.70;76.20;;;;;;5075069;28;19944;-91
2022/09/21 00:46:55;;;;;;;;;;;15.70;76.30;;;;;;5075218;28;19975;-91
2022/09/21 00:49:21;;;;;;;;;;;15.60;77.20;;;;;;5074830;28;20419;-91
2022/09/21 00:51:48;;;;;;;;;;;15.60;77.10;;;;;;5074336;28;19972;-91
2022/09/21 00:54:19;;;;;;;;;;;15.50;77.30;;;;;;5075072;28;20006;-92
2022/09/21 00:56:45;;;;;;;;;;;15.40;77.30;;;;;;5074727;28;19940;-92
2022/09/21 00:59:12;;;;;;;;;;;15.40;77.40;;;;;;5074752;28;19988;-91
2022/09/21 01:01:38;;;;;;;;;;;15.30;77.70;;;;;;5074391;28;19966;-92
2022/09/21 01:04:04;;;;;;;;;;;15.40;78.10;;;;;;5074368;28;20028;-91
2022/09/21 01:06:31;;;;;;;;;;;15.30;78.20;;;;;;5074565;28;20035;-90
2022/09/21 01:08:57;;;;;;;;;;;15.30;77.60;;;;;;5056593;28;19944;-92
2022/09/21 01:11:24;;;;;;;;;;;15.30;77.60;;;;;;5074498;28;19944;-92
2022/09/21 01:13:59;;;;;;;;;;;15.20;77.60;;;;;;5074202;28;19992;-91
2022/09/21 01:16:24;;;;;;;;;;;15.20;77.10;;;;;;5074402;28;19942;-90
2022/09/21 01:19:09;;;;;;;;;;;15.20;76.30;;;;;;5056307;28;19972;-92
2022/09/21 01:21:42;;;;;;;;;;;15.20;76.50;;;;;;5072956;28;19999;-91
2022/09/21 01:24:43;;;;;;;;;;;15.20;76.60;;;;;;5073837;28;19986;-90
2022/09/21 01:27:27;;;;;;;;;;;15.10;76.20;;;;;;4973139;28;19984;-91
2022/09/21 01:30:01;;;;;;;;;;;15.10;76.50;;;;;;5065631;28;19944;-91
2022/09/21 01:32:38;;;;;;;;;;;15.00;76.90;;;;;;5073312;28;20484;-91
2022/09/21 01:35:21;;;;;;;;;;;15.10;77.00;;;;;;5074085;28;19942;-91
2022/09/21 01:37:51;;;;;;;;;;;15.00;76.90;;;;;;5073772;28;19984;-90
2022/09/21 01:40:27;;;;;;;;;;;15.00;76.90;;;;;;5073828;28;19941;-91
2022/09/21 01:42:54;;;;;;;;;;;15.10;77.00;;;;;;5073362;28;19955;-92
2022/09/21 01:45:23;;;;;;;;;;;15.10;76.90;;;;;;5073845;28;19951;-91
2022/09/21 01:47:50;;;;;;;;;;;15.00;77.00;;;;;;5073761;28;20361;-91
2022/09/21 01:50:16;;;;;;;;;;;14.90;78.30;;;;;;5073843;28;19946;-91
2022/09/21 01:52:46;;;;;;;;;;;14.90;78.70;;;;;;5073123;28;19984;-91
2022/09/21 01:55:32;;;;;;;;;;;14.80;79.00;;;;;;5073657;28;19937;-91
2022/09/21 01:58:09;;;;;;;;;;;14.90;79.20;;;;;;5055794;28;19966;-91
2022/09/21 02:00:35;;;;;;;;;;;14.90;78.40;;;;;;5073548;28;19955;-91
2022/09/21 02:03:04;;;;;;;;;;;14.90;78.10;;;;;;5072840;28;19944;-91
2022/09/21 02:05:30;;;;;;;;;;;15.00;78.00;;;;;;5073469;28;19951;-91
2022/09/21 02:07:56;;;;;;;;;;;15.00;77.90;;;;;;5073318;28;19946;-91
2022/09/21 02:10:25;;;;;;;;;;;15.00;77.80;;;;;;5073408;28;19940;-91
2022/09/21 02:12:58;;;;;;;;;;;15.00;77.60;;;;;;5072932;28;19941;-91
2022/09/21 02:15:28;;;;;;;;;;;15.00;77.40;;;;;;5073341;28;20022;-91
2022/09/21 02:18:04;;;;;;;;;;;15.10;77.80;;;;;;5073193;28;19956;-91
2022/09/21 02:20:33;;;;;;;;;;;15.00;77.30;;;;;;5073192;28;19939;-91
2022/09/21 02:23:02;;;;;;;;;;;15.00;77.10;;;;;;5073014;28;19943;-91
2022/09/21 02:25:30;;;;;;;;;;;14.90;77.10;;;;;;5073225;28;19947;-90
2022/09/21 02:28:04;;;;;;;;;;;14.90;77.50;;;;;;5073162;28;19939;-91
2022/09/21 02:30:32;;;;;;;;;;;14.80;78.70;;;;;;5072779;28;19945;-90
2022/09/21 02:32:57;;;;;;;;;;;14.70;79.00;;;;;;5072956;28;19967;-91
2022/09/21 02:35:25;;;;;;;;;;;14.40;80.20;;;;;;5073139;28;20459;-90
2022/09/21 02:38:01;;;;;;;;;;;14.20;81.40;;;;;;5072925;28;19980;-91
2022/09/21 02:40:33;;;;;;;;;;;14.10;82.20;;;;;;5072658;28;20428;-91
2022/09/21 02:43:01;;;;;;;;;;;14.20;82.20;;;;;;5072717;28;19945;-91
2022/09/21 02:45:33;;;;;;;;;;;14.20;81.50;;;;;;5072950;28;20352;-90
2022/09/21 02:48:11;;;;;;;;;;;14.30;81.10;;;;;;5072997;28;19965;-91
2022/09/21 02:50:47;;;;;;;;;;;14.40;80.00;;;;;;5072365;28;20353;-92
2022/09/21 02:53:16;;;;;;;;;;;14.40;79.90;;;;;;5073023;28;19939;-90
2022/09/21 02:55:44;;;;;;;;;;;14.40;79.90;;;;;;5072924;28;20026;-90
2022/09/21 02:58:13;;;;;;;;;;;14.40;79.50;;;;;;5072876;28;20010;-91
2022/09/21 03:00:39;;;;;;;;;;;14.40;79.50;;;;;;5072592;28;20001;-90
2022/09/21 03:03:16;;;;;;;;;;;14.30;79.50;;;;;;5072806;28;19941;-91
2022/09/21 03:05:42;;;;;;;;;;;14.30;79.60;;;;;;5072831;28;19969;-91
2022/09/21 03:08:08;;;;;;;;;;;14.20;79.70;;;;;;5072736;28;19939;-91
2022/09/21 03:10:38;;;;;;;;;;;14.20;79.80;;;;;;5072303;28;20025;-91
2022/09/21 03:13:04;;;;;;;;;;;14.20;79.70;;;;;;5072751;28;20362;-91
2022/09/21 03:15:30;;;;;;;;;;;14.10;79.80;;;;;;5072729;28;19939;-91
2022/09/21 03:17:55;;;;;;;;;;;14.10;79.90;;;;;;5072645;28;20012;-91
2022/09/21 03:20:21;;;;;;;;;;;14.10;79.90;;;;;;5072471;28;19949;-91
2022/09/21 03:22:46;;;;;;;;;;;14.10;79.90;;;;;;5072461;28;20367;-91
2022/09/21 03:25:12;;;;;;;;;;;14.10;79.90;;;;;;5072667;28;19976;-91
2022/09/21 03:27:38;;;;;;;;;;;14.10;79.60;;;;;;5072780;28;20029;-91
2022/09/21 03:30:04;;;;;;;;;;;14.10;79.50;;;;;;5072535;28;19943;-91
2022/09/21 03:32:29;;;;;;;;;;;14.10;79.30;;;;;;5072150;28;20389;-91
2022/09/21 03:34:55;;;;;;;;;;;14.10;79.10;;;;;;5072638;28;19937;-90
2022/09/21 03:37:20;;;;;;;;;;;14.10;79.00;;;;;;5072342;28;20072;-91
2022/09/21 03:39:46;;;;;;;;;;;14.10;78.90;;;;;;5072284;28;20031;-91
2022/09/21 03:42:12;;;;;;;;;;;14.10;78.70;;;;;;5072284;28;20035;-91
2022/09/21 03:44:39;;;;;;;;;;;14.20;79.70;;;;;;5073007;28;19954;-90
2022/09/21 03:47:05;;;;;;;;;;;14.20;79.70;;;;;;5076360;28;19943;-91
2022/09/21 03:49:31;;;;;;;;;;;14.00;80.30;;;;;;5076167;28;20467;-90
2022/09/21 03:51:58;;;;;;;;;;;14.00;80.70;;;;;;5075443;28;20442;-90
2022/09/21 03:54:24;;;;;;;;;;;13.90;80.20;;;;;;5076059;28;19951;-91
2022/09/21 03:56:50;;;;;;;;;;;13.90;80.00;;;;;;5076071;28;20007;-91
2022/09/21 03:59:16;;;;;;;;;;;13.90;79.80;;;;;;5075855;28;20359;-90
2022/09/21 04:01:42;;;;;;;;;;;13.90;79.80;;;;;;5057501;28;19993;-90
2022/09/21 04:04:08;;;;;;;;;;;14.00;79.40;;;;;;5075796;28;19943;-91
2022/09/21 04:06:34;;;;;;;;;;;14.00;78.80;;;;;;5075727;28;20427;-90
2022/09/21 04:09:01;;;;;;;;;;;14.10;78.50;;;;;;5075673;28;19945;-91
2022/09/21 04:11:27;;;;;;;;;;;14.10;78.80;;;;;;5075055;28;19941;-91
2022/09/21 04:13:55;;;;;;;;;;;14.10;79.50;;;;;;5075608;28;19982;-91
2022/09/21 04:16:24;;;;;;;;;;;14.10;79.80;;;;;;5075840;28;19947;-91
2022/09/21 04:18:50;;;;;;;;;;;13.90;80.20;;;;;;5075523;28;19978;-92
2022/09/21 04:21:20;;;;;;;;;;;13.80;80.90;;;;;;5075143;28;19946;-91
2022/09/21 04:23:46;;;;;;;;;;;13.70;81.20;;;;;;5075519;28;19941;-91
2022/09/21 04:26:19;;;;;;;;;;;13.70;81.00;;;;;;5075336;28;19988;-91
2022/09/21 04:28:45;;;;;;;;;;;13.60;81.20;;;;;;5075361;28;20061;-92
2022/09/21 04:31:11;;;;;;;;;;;13.50;81.70;;;;;;5074565;28;19999;-92
2022/09/21 04:33:36;;;;;;;;;;;13.40;82.00;;;;;;5075378;28;19984;-93
2022/09/21 04:36:02;;;;;;;;;;;13.40;81.80;;;;;;5075525;28;20303;-93
2022/09/21 04:38:29;;;;;;;;;;;13.40;81.50;;;;;;5075153;28;20455;-92
2022/09/21 04:40:55;;;;;;;;;;;13.40;81.40;;;;;;5075210;28;19942;-93
2022/09/21 04:43:22;;;;;;;;;;;13.40;81.70;;;;;;5075609;28;19944;-93
2022/09/21 04:45:47;;;;;;;;;;;13.50;81.90;;;;;;5075566;28;19945;-93
2022/09/21 04:48:13;;;;;;;;;;;13.40;81.90;;;;;;5075480;28;20401;-92
2022/09/21 04:50:38;;;;;;;;;;;13.50;82.00;;;;;;5074920;28;19941;-93
2022/09/21 04:53:04;;;;;;;;;;;13.50;81.80;;;;;;5075065;28;19988;-93
2022/09/21 04:55:30;;;;;;;;;;;13.50;81.70;;;;;;5075056;28;20369;-93
2022/09/21 04:57:56;;;;;;;;;;;13.60;81.40;;;;;;5074971;28;20049;-93
2022/09/21 05:00:21;;;;;;;;;;;13.70;81.30;;;;;;5074961;28;19948;-93
2022/09/21 05:02:47;;;;;;;;;;;13.80;81.20;;;;;;5074936;28;19939;-93
2022/09/21 05:05:13;;;;;;;;;;;13.90;81.10;;;;;;5074590;28;20034;-93
2022/09/21 05:07:38;;;;;;;;;;;13.90;80.80;;;;;;5074853;28;19943;-93
2022/09/21 05:10:05;;;;;;;;;;;14.10;80.50;;;;;;5074572;28;19941;-94
2022/09/21 05:12:31;;;;;;;;;;;14.20;80.50;;;;;;5074708;28;20034;-93
2022/09/21 05:14:57;;;;;;;;;;;14.30;80.30;;;;;;5073490;28;20028;-93
2022/09/21 05:17:23;;;;;;;;;;;14.40;79.70;;;;;;5069215;28;20067;-93
2022/09/21 05:19:49;;;;;;;;;;;14.50;80.50;;;;;;5074804;28;19944;-92
2022/09/21 05:22:15;;;;;;;;;;;14.50;80.40;;;;;;5055754;28;20230;-93
2022/09/21 05:24:40;;;;;;;;;;;14.50;80.20;;;;;;5053348;28;20434;-93
2022/09/21 05:27:06;;;;;;;;;;;14.50;80.20;;;;;;5067129;28;20035;-93
2022/09/21 05:29:31;;;;;;;;;;;14.40;80.90;;;;;;5070838;28;20006;-93
2022/09/21 05:31:57;;;;;;;;;;;14.50;81.00;;;;;;5069019;28;19952;-92
2022/09/21 05:34:22;;;;;;;;;;;14.70;79.90;;;;;;5071751;28;19951;-93
2022/09/21 05:36:48;;;;;;;;;;;14.80;79.10;;;;;;5073096;28;20068;-93
2022/09/21 05:39:14;;;;;;;;;;;14.90;79.10;;;;;;5073878;28;20003;-92
2022/09/21 05:41:40;;;;;;;;;;;15.00;77.50;;;;;;5073286;28;19955;-93
2022/09/21 05:44:06;;;;;;;;;;;15.10;76.30;;;;;;5073653;28;19946;-93
2022/09/21 05:46:57;;;;;;;;;;;15.20;75.50;;;;;;5072676;28;20503;-93
2022/09/21 05:49:29;;;;;;;;;;;15.30;75.00;;;;;;5031123;28;20323;-93
2022/09/21 05:52:04;;;;;;;;;;;15.30;74.00;;;;;;5072424;28;19967;-93
2022/09/21 05:54:44;;;;;;;;;;;15.30;73.60;;;;;;5069979;28;20027;-93
2022/09/21 05:57:18;;;;;;;;;;;15.40;73.00;;;;;;5066163;28;20028;-93
2022/09/21 06:00:02;;;;;;;;;;;15.40;72.60;;;;;;5071746;28;19957;-93
2022/09/21 06:02:27;;;;;;;;;;;15.50;71.50;;;;;;5068767;28;19974;-93
2022/09/21 06:04:55;;;;;;;;;;;15.70;70.90;;;;;;5071641;28;20403;-93
2022/09/21 06:07:20;;;;;;;;;;;15.70;70.70;;;;;;5070888;28;20002;-93
2022/09/21 06:09:46;;;;;;;;;;;15.70;70.10;;;;;;5064819;28;20418;-93
2022/09/21 06:12:11;;;;;;;;;;;15.70;69.90;;;;;;5070937;28;19965;-93
2022/09/21 06:14:37;;;;;;;;;;;15.80;69.80;;;;;;5072992;28;20438;-93
2022/09/21 06:17:03;;;;;;;;;;;15.80;69.50;;;;;;5071792;28;19947;-93
2022/09/21 06:19:28;;;;;;;;;;;15.80;68.90;;;;;;5073006;28;19944;-93
2022/09/21 06:21:54;;;;;;;;;;;15.90;68.50;;;;;;5073635;28;20012;-93
2022/09/21 06:24:19;;;;;;;;;;;15.90;68.10;;;;;;5073194;28;19941;-93
2022/09/21 06:26:45;;;;;;;;;;;15.90;67.60;;;;;;5072258;28;20107;-93
2022/09/21 06:29:10;;;;;;;;;;;15.90;67.50;;;;;;5070040;28;20028;-93
2022/09/21 06:31:36;;;;;;;;;;;16.00;67.40;;;;;;5072140;28;19957;-93
2022/09/21 06:34:02;;;;;;;;;;;16.10;66.60;;;;;;5072078;28;20313;-93
2022/09/21 06:36:27;;;;;;;;;;;16.10;65.90;;;;;;5077779;22;20034;-93
2022/09/21 06:38:53;;;;;;;;;;;16.20;65.00;;;;;;5073104;28;20414;-93
2022/09/21 06:41:18;;;;;;;;;;;16.30;64.40;;;;;;5071055;28;19989;-93
2022/09/21 06:43:44;;;;;;;;;;;16.40;64.00;;;;;;5072578;28;19954;-93
2022/09/21 06:46:09;;;;;;;;;;;16.40;63.10;;;;;;5072842;28;20427;-93
2022/09/21 06:48:35;;;;;;;;;;;16.60;62.70;;;;;;5071857;28;20317;-93
2022/09/21 06:51:04;;;;;;;;;;;16.60;62.00;;;;;;5072978;28;20408;-93
2022/09/21 06:53:31;;;;;;;;;;;16.70;61.40;;;;;;5072875;28;19939;-93
2022/09/21 06:56:07;;;;;;;;;;;16.70;60.80;;;;;;5062930;28;19954;-93
2022/09/21 06:58:33;;;;;;;;;;;16.80;60.30;;;;;;5041226;28;19965;-94
2022/09/21 07:01:11;;;;;;;;;;;16.80;60.50;;;;;;5047296;28;19945;-92
2022/09/21 07:03:37;;;;;;;;;;;16.90;59.90;;;;;;5052995;28;20358;-93
2022/09/21 07:06:03;;;;;;;;;;;16.90;59.70;;;;;;5062139;28;20030;-93
2022/09/21 07:08:29;;;;;;;;;;;16.90;60.00;;;;;;5053093;28;20034;-92
2022/09/21 07:10:58;;;;;;;;;;;16.90;59.50;;;;;;5060420;28;19951;-93
2022/09/21 07:13:24;;;;;;;;;;;17.00;58.40;;;;;;5053091;28;19953;-94
2022/09/21 07:15:50;;;;;;;;;;;17.00;58.90;;;;;;5035678;28;20437;-94
2022/09/21 07:18:16;;;;;;;;;;;17.10;58.10;;;;;;5035704;28;20011;-94
2022/09/21 07:20:42;;;;;;;;;;;17.20;57.80;;;;;;5072239;28;19950;-94
2022/09/21 07:23:14;;;;;;;;;;;17.20;57.70;;;;;;5077183;28;20035;-94
2022/09/21 07:25:44;;;;;;;;;;;17.30;58.00;;;;;;5073879;28;19950;-94
2022/09/21 07:28:10;;;;;;;;;;;17.20;57.20;;;;;;5077216;28;20319;-94
2022/09/21 07:30:36;;;;;;;;;;;17.30;56.40;;;;;;5059359;28;19943;-94
2022/09/21 07:33:02;;;;;;;;;;;17.30;54.50;;;;;;5077037;28;19937;-94
2022/09/21 07:35:27;;;;;;;;;;;17.30;55.30;;;;;;5077062;28;20406;-94
2022/09/21 07:37:55;;;;;;;;;;;17.40;55.70;;;;;;5076863;28;20021;-93
2022/09/21 07:40:20;;;;;;;;;;;17.40;54.90;;;;;;5063899;28;19947;-93
2022/09/21 07:42:46;;;;;;;;;;;17.50;53.90;;;;;;5042719;28;20379;-93
2022/09/21 07:45:11;;;;;;;;;;;17.50;52.60;;;;;;5036862;28;20378;-93
2022/09/21 07:47:37;;;;;;;;;;;17.50;52.30;;;;;;5059922;28;19949;-93
2022/09/21 07:50:03;;;;;;;;;;;17.60;52.40;;;;;;5056540;28;19989;-94
2022/09/21 07:52:28;;;;;;;;;;;17.60;52.70;;;;;;5076314;28;20013;-94
2022/09/21 07:54:54;;;;;;;;;;;17.60;52.60;;;;;;5065101;28;19995;-94
2022/09/21 08:00:04;;;;;;;;;;;17.80;52.40;;;;;;5061415;28;19949;-94
2022/09/21 08:02:29;;;;;;;;;;;17.90;51.30;;;;;;5076602;28;19940;-94
2022/09/21 08:04:55;;;;;;;;;;;18.00;51.20;;;;;;5066905;28;19942;-93
2022/09/21 08:07:20;;;;;;;;;;;18.10;51.10;;;;;;5056366;28;20069;-93
2022/09/21 08:09:48;;;;;;;;;;;18.20;50.90;;;;;;5056273;28;19942;-93
2022/09/21 08:12:17;;;;;;;;;;;18.10;51.50;;;;;;5056684;28;19941;-94
2022/09/21 08:14:43;;;;;;;;;;;18.10;52.20;;;;;;5056174;28;19945;-94
2022/09/21 08:17:09;;;;;;;;;;;18.00;51.70;;;;;;5056210;28;20396;-94
2022/09/21 08:19:35;;;;;;;;;;;18.00;53.10;;;;;;5055903;28;19992;-94
2022/09/21 08:22:01;;;;;;;;;;;18.00;52.30;;;;;;5056193;28;20031;-95
2022/09/21 08:24:26;;;;;;;;;;;18.00;52.80;;;;;;5055994;28;20477;-94
2022/09/21 08:26:52;;;;;;;;;;;18.00;53.20;;;;;;5055874;28;20037;-94
2022/09/21 08:29:17;;;;;;;;;;;18.10;53.40;;;;;;5056026;28;20541;-94
2022/09/21 08:31:44;;;;;;;;;;;18.10;52.00;;;;;;5055561;28;19948;-93
2022/09/21 08:34:09;;;;;;;;;;;18.10;52.10;;;;;;5072219;28;20010;-94
2022/09/21 08:36:35;;;;;;;;;;;18.10;51.90;;;;;;5058279;28;20456;-94
2022/09/21 08:39:00;;;;;;;;;;;18.10;51.50;;;;;;5055786;28;20446;-94
2022/09/21 08:41:29;;;;;;;;;;;18.30;54.50;;;;;;5064434;28;20389;-93
2022/09/21 08:43:57;;;;;;;;;;;18.30;53.30;;;;;;5075447;28;20380;-93
2022/09/21 08:46:25;;;;;;;;;;;18.30;51.60;;;;;;5067330;28;20092;-93
2022/09/21 08:49:09;;;;;;;;;;;18.40;51.40;;;;;;5057004;28;19979;-94
2022/09/21 08:51:37;;;;;;;;;;;18.40;50.50;;;;;;5055219;28;20451;-93
2022/09/21 08:54:06;;;;;;;;;;;18.50;49.80;;;;;;5044630;28;19967;-94
2022/09/21 08:56:31;;;;;;;;;;;18.50;50.70;;;;;;5055361;28;19939;-93
2022/09/21 08:58:57;;;;;;;;;;;18.50;49.20;;;;;;5055238;28;20411;-93
2022/09/21 09:01:44;;;;;;;;;;;18.50;49.00;;;;;;5055267;28;19946;-93
2022/09/21 09:04:21;;;;;;;;;;;18.60;49.30;;;;;;5063311;28;19968;-94
2022/09/21 09:07:05;;;;;;;;;;;18.70;49.20;;;;;;5055012;28;19944;-94
2022/09/21 09:09:39;;;;;;;;;;;18.80;51.60;;;;;;5057614;28;19942;-93
2022/09/21 09:12:04;;;;;;;;;;;18.80;50.90;;;;;;5058749;28;19939;-93
2022/09/21 09:14:30;;;;;;;;;;;18.90;49.80;;;;;;5054659;28;19950;-93
2022/09/21 09:16:55;;;;;;;;;;;19.00;48.10;;;;;;5054891;28;20040;-94
2022/09/21 09:19:21;;;;;;;;;;;19.00;47.90;;;;;;5062001;28;19959;-94
2022/09/21 09:21:46;;;;;;;;;;;19.00;48.30;;;;;;5051609;28;19947;-94
2022/09/21 09:24:30;;;;;;;;;;;19.10;48.90;;;;;;5057446;28;19947;-93
2022/09/21 09:27:01;;;;;;;;;;;19.10;48.70;;;;;;5036727;28;19947;-93
2022/09/21 09:29:32;;;;;;;;;;;19.10;48.40;;;;;;5059202;28;19940;-94
2022/09/21 09:31:59;;;;;;;;;;;19.20;48.00;;;;;;5059738;28;19967;-93
2022/09/21 09:34:32;;;;;;;;;;;19.30;51.30;;;;;;5059550;28;19970;-93
2022/09/21 09:37:18;;;;;;;;;;;19.30;50.90;;;;;;5054010;28;19996;-93
2022/09/21 09:39:52;;;;;;;;;;;19.50;52.00;;;;;;5053174;28;19959;-94
2022/09/21 09:42:35;;;;;;;;;;;19.60;51.20;;;;;;5057722;28;19979;-93
2022/09/21 09:45:07;;;;;;;;;;;19.70;47.40;;;;;;5074414;28;19955;-93
2022/09/21 09:47:52;;;;;;;;;;;19.80;48.20;;;;;;5060987;28;20467;-94
2022/09/21 09:50:21;;;;;;;;;;;19.80;49.90;;;;;;5043260;28;19973;-94
2022/09/21 09:52:48;;;;;;;;;;;19.80;49.20;;;;;;5067599;28;19968;-94
2022/09/21 09:55:19;;;;;;;;;;;20.00;48.60;;;;;;5054305;28;19941;-94
2022/09/21 09:59:32;;;;;;;;;;;20.10;48.00;;;;;;5027845;28;20345;-94
2022/09/21 10:02:17;;;;;;;;;;;20.10;46.60;;;;;;5027944;28;20489;-94
2022/09/21 10:05:04;;;;;;;;;;;20.20;47.60;;;;;;5023755;28;19954;-94
2022/09/21 10:07:33;;;;;;;;;;;20.20;43.70;;;;;;5027436;28;19948;-94
2022/09/21 10:09:58;;;;;;;;;;;20.10;45.20;;;;;;5027611;28;20027;-94
2022/09/21 10:12:26;;;;;;;;;;;20.10;44.40;;;;;;5027390;28;19980;-94
2022/09/21 10:14:53;;;;;;;;;;;20.00;43.90;;;;;;5027557;28;19985;-94
2022/09/21 10:17:19;;;;;;;;;;;20.10;44.70;;;;;;5027417;28;19978;-94
2022/09/21 10:19:45;;;;;;;;;;;20.30;48.20;;;;;;5027410;28;20435;-94
2022/09/21 10:22:15;;;;;;;;;;;20.40;46.90;;;;;;5026161;28;19952;-94
2022/09/21 10:24:45;;;;;;;;;;;20.50;45.50;;;;;;5029914;28;20036;-94
2022/09/21 10:27:20;;;;;;;;;;;20.70;42.90;;;;;;5045976;28;19944;-94
2022/09/21 10:29:46;;;;;;;;;;;20.80;43.90;;;;;;5047212;28;20010;-94
2022/09/21 10:32:12;;;;;;;;;;;20.90;44.60;;;;;;5047255;28;19989;-94
2022/09/21 10:34:39;;;;;;;;;;;20.80;43.10;;;;;;5045878;28;19988;-94
2022/09/21 10:37:23;;;;;;;;;;;20.90;42.60;;;;;;5047235;28;20025;-94
2022/09/21 10:39:48;;;;;;;;;;;20.90;41.90;;;;;;5043560;28;19948;-94
2022/09/21 10:42:15;;;;;;;;;;;21.10;42.20;;;;;;5027090;28;19988;-94
2022/09/21 10:44:42;;;;;;;;;;;21.20;40.30;;;;;;5027221;28;20393;-94
2022/09/21 10:47:13;;;;;;;;;;;21.30;42.00;;;;;;5027020;28;19943;-94
2022/09/21 10:49:43;;;;;;;;;;;21.50;40.60;;;;;;5034204;28;19958;-94
2022/09/21 10:52:08;;;;;;;;;;;21.60;36.00;;;;;;5029019;28;20065;-94
2022/09/21 10:54:34;;;;;;;;;;;21.60;39.80;;;;;;5007146;28;19968;-94
2022/09/21 10:57:06;;;;;;;;;;;21.60;39.20;;;;;;5007148;28;19941;-94
2022/09/21 10:59:32;;;;;;;;;;;21.70;37.70;;;;;;5026781;28;20332;-94
2022/09/21 11:01:59;;;;;;;;;;;21.70;39.00;;;;;;5026871;28;20029;-94
2022/09/21 11:04:31;;;;;;;;;;;21.80;40.50;;;;;;5026718;28;20387;-94
2022/09/21 11:07:04;;;;;;;;;;;22.00;38.80;;;;;;5026807;28;19941;-94
2022/09/21 11:09:43;;;;;;;;;;;21.90;39.70;;;;;;5028401;28;20030;-94
2022/09/21 11:12:32;;;;;;;;;;;22.10;39.80;;;;;;5007926;28;19939;-94
2022/09/21 11:14:58;;;;;;;;;;;22.40;39.80;;;;;;5013402;28;19954;-94
2022/09/21 11:17:26;;;;;;;;;;;22.60;37.20;;;;;;5013081;28;19967;-94
2022/09/21 11:20:02;;;;;;;;;;;22.50;36.20;;;;;;5013075;28;19987;-94
2022/09/21 11:22:30;;;;;;;;;;;22.60;36.90;;;;;;5013230;28;20020;-94
2022/09/21 11:25:14;;;;;;;;;;;22.80;38.10;;;;;;5013152;28;19940;-94
2022/09/21 11:27:41;;;;;;;;;;;22.80;38.40;;;;;;5012719;28;20024;-94
2022/09/21 11:30:14;;;;;;;;;;;22.40;35.90;;;;;;5013054;28;20053;-94
2022/09/21 11:32:58;;;;;;;;;;;22.30;36.50;;;;;;5011513;28;19941;-94
2022/09/21 11:35:46;;;;;;;;;;;22.80;36.30;;;;;;5015838;28;19949;-95
2022/09/21 11:38:30;;;;;;;;;;;23.00;35.10;;;;;;5012608;28;19983;-94
2022/09/21 11:41:00;;;;;;;;;;;22.40;37.90;;;;;;5007595;28;20040;-94
2022/09/21 11:43:32;;;;;;;;;;;22.30;37.10;;;;;;5039972;28;20444;-95
2022/09/21 11:46:16;;;;;;;;;;;22.20;37.20;;;;;;5012731;28;19944;-94
2022/09/21 11:49:02;;;;;;;;;;;21.80;38.40;;;;;;5017367;28;19941;-94
2022/09/21 11:51:46;;;;;;;;;;;21.80;36.70;;;;;;5041829;28;19968;-94
2022/09/21 11:54:43;;;;;;;;;;;21.80;36.70;;;;;;5012730;28;19942;-94
2022/09/21 11:57:20;;;;;;;;;;;21.80;37.50;;;;;;5055228;28;19949;-94
2022/09/21 11:59:46;;;;;;;;;;;22.50;37.40;;;;;;5017888;28;19941;-94
2022/09/21 12:02:21;;;;;;;;;;;22.40;36.80;;;;;;5030841;28;20451;-94
2022/09/21 12:04:46;;;;;;;;;;;22.80;39.30;;;;;;5012497;28;19945;-95
2022/09/21 12:07:26;;;;;;;;;;;23.30;38.10;;;;;;5012774;28;19939;-94
2022/09/21 12:10:09;;;;;;;;;;;23.30;38.40;;;;;;5061808;28;20422;-94
2022/09/21 12:12:41;;;;;;;;;;;22.90;38.00;;;;;;5065972;28;19953;-94
2022/09/21 12:15:24;;;;;;;;;;;22.40;36.10;;;;;;5012570;28;20302;-94
2022/09/21 12:17:53;;;;;;;;;;;21.90;37.40;;;;;;5012661;28;19965;-94
2022/09/21 12:20:18;;;;;;;;;;;21.60;39.60;;;;;;5012288;28;19944;-94
2022/09/21 12:22:45;;;;;;;;;;;21.80;38.70;;;;;;5013294;28;19950;-94
2022/09/21 12:25:12;;;;;;;;;;;22.80;39.20;;;;;;5012101;28;19940;-94
2022/09/21 12:27:40;;;;;;;;;;;24.10;34.80;;;;;;5012626;28;19998;-94
2022/09/21 12:30:10;;;;;;;;;;;25.80;32.20;;;;;;5011782;28;19998;-94
2022/09/21 12:32:36;;;;;;;;;;;27.30;28.90;;;;;;5048383;28;20035;-94
2022/09/21 12:35:03;;;;;;;;;;;27.30;29.90;;;;;;5012703;28;20462;-94
2022/09/21 12:37:32;;;;;;;;;;;28.00;30.60;;;;;;5036604;28;19960;-94
2022/09/21 12:39:58;;;;;;;;;;;28.70;27.80;;;;;;5012498;28;19940;-94
2022/09/21 12:42:35;;;;;;;;;;;29.80;28.40;;;;;;5013923;28;20359;-94
2022/09/21 12:45:14;;;;;;;;;;;30.70;25.60;;;;;;5013663;28;19977;-95
2022/09/21 12:47:44;;;;;;;;;;;32.00;23.70;;;;;;5045860;28;19965;-95
2022/09/21 12:50:22;;;;;;;;;;;32.60;23.80;;;;;;5015751;28;19947;-94
2022/09/21 12:52:49;;;;;;;;;;;33.50;21.60;;;;;;5039918;28;19940;-95
2022/09/21 12:55:17;;;;;;;;;;;33.90;20.50;;;;;;5022836;28;19966;-94
2022/09/21 12:58:09;;;;;;;;;;;34.20;21.90;;;;;;5010747;28;19975;-94
2022/09/21 13:00:41;;;;;;;;;;;33.20;22.10;;;;;;5018201;28;19972;-95
2022/09/21 13:03:20;;;;;;;;;;;32.70;23.40;;;;;;5010195;28;20589;-95
2022/09/21 13:06:12;;;;;;;;;;;32.70;24.20;;;;;;5009972;28;19953;-95
2022/09/21 13:08:39;;;;;;;;;;;32.50;23.60;;;;;;5009556;28;20288;-94
2022/09/21 13:11:06;;;;;;;;;;;32.30;23.90;;;;;;5016963;28;19947;-94
2022/09/21 13:13:32;;;;;;;;;;;32.20;23.90;;;;;;5008939;28;20378;-94
2022/09/21 13:15:58;;;;;;;;;;;32.10;23.20;;;;;;5037662;28;19985;-94
2022/09/21 13:18:33;;;;;;;;;;;32.20;24.10;;;;;;5013967;28;19966;-94
2022/09/21 13:21:18;;;;;;;;;;;31.90;23.30;;;;;;5010317;28;19940;-95
2022/09/21 13:23:51;;;;;;;;;;;30.70;24.50;;;;;;5002879;28;19967;-94
2022/09/21 13:26:27;;;;;;;;;;;29.10;25.80;;;;;;5011068;28;20038;-95
2022/09/21 13:28:52;;;;;;;;;;;29.10;27.20;;;;;;5011236;28;20423;-94
2022/09/21 13:31:17;;;;;;;;;;;26.80;30.80;;;;;;5010890;28;19945;-94
2022/09/21 13:34:01;;;;;;;;;;;25.20;32.50;;;;;;5010841;28;19984;-95
2022/09/21 13:36:29;;;;;;;;;;;24.70;33.40;;;;;;5011052;28;19941;-94
2022/09/21 13:38:56;;;;;;;;;;;23.80;35.80;;;;;;5032504;28;20303;-94
2022/09/21 13:41:26;;;;;;;;;;;22.70;35.90;;;;;;5017154;28;20048;-94
2022/09/21 13:43:54;;;;;;;;;;;22.20;37.70;;;;;;5011113;28;19944;-94
2022/09/21 13:46:35;;;;;;;;;;;21.80;37.80;;;;;;5037955;27;20359;-95
2022/09/21 13:49:04;;;;;;;;;;;21.90;39.10;;;;;;5005132;28;19945;-94
2022/09/21 13:51:33;;;;;;;;;;;22.00;38.70;;;;;;5010557;28;19986;-94
2022/09/21 13:54:01;;;;;;;;;;;22.30;36.20;;;;;;5024909;28;19948;-95
2022/09/21 13:56:27;;;;;;;;;;;22.70;36.70;;;;;;5010959;28;19947;-95
2022/09/21 13:58:56;;;;;;;;;;;23.80;34.40;;;;;;5010771;28;19991;-95
2022/09/21 14:01:32;;;;;;;;;;;25.10;33.60;;;;;;5073674;28;19952;-95
2022/09/21 14:04:00;;;;;;;;;;;26.30;31.70;;;;;;5030755;28;20300;-95
2022/09/21 14:06:31;;;;;;;;;;;27.70;29.60;;;;;;5017181;28;19944;-95
2022/09/21 14:09:01;;;;;;;;;;;28.30;29.40;;;;;;5010382;28;19969;-95
2022/09/21 14:11:40;;;;;;;;;;;29.50;26.00;;;;;;4992528;28;20043;-95
2022/09/21 14:14:06;;;;;;;;;;;29.80;26.00;;;;;;5036777;28;19942;-95
2022/09/21 14:16:38;;;;;;;;;;;29.20;27.90;;;;;;5024981;28;19946;-95
2022/09/21 14:19:28;;;;;;;;;;;27.80;27.90;;;;;;5074433;28;19973;-95
2022/09/21 14:22:03;;;;;;;;;;;27.70;28.60;;;;;;5038820;28;20417;-95
2022/09/21 14:24:45;;;;;;;;;;;27.50;29.90;;;;;;5014977;28;19951;-94
2022/09/21 14:27:13;;;;;;;;;;;27.10;30.30;;;;;;5010718;28;20022;-95
2022/09/21 14:29:58;;;;;;;;;;;25.80;33.10;;;;;;5010730;28;19948;-95
2022/09/21 14:32:25;;;;;;;;;;;25.10;33.90;;;;;;5010144;28;19960;-94
2022/09/21 14:34:55;;;;;;;;;;;24.40;34.90;;;;;;5009379;28;19949;-94